sensor_id;sensor_type;location;lat;lon;timestamp;pressure;altitude;pressure_sealevel;temperature;humidity
73862;BME280;63459;51.456;-0.916;2022-12-18T00:00:07;101641.36;;;12.38;23.13
73862;BME280;63459;51.456;-0.916;2022-12-18T00:02:31;101638.19;;;12.81;23.13
73862;BME280;63459;51.456;-0.916;2022-12-18T00:04:59;101637.52;;;12.09;23.18
73862;BME280;63459;51.456;-0.916;2022-12-18T00:07:22;101640.31;;;12.48;23.22
73862;BME280;63459;51.456;-0.916;2022-12-18T00:09:48;101637.99;;;11.82;23.23
73862;BME280;63459;51.456;-0.916;2022-12-18T00:17:05;101630.00;;;12.24;23.21
73862;BME280;63459;51.456;-0.916;2022-12-18T00:19:30;101623.66;;;12.28;23.20
73862;BME280;63459;51.456;-0.916;2022-12-18T00:21:56;101625.01;;;12.06;23.20
73862;BME280;63459;51.456;-0.916;2022-12-18T00:24:21;101625.97;;;12.30;23.17
73862;BME280;63459;51.456;-0.916;2022-12-18T00:26:47;101620.38;;;12.54;23.12
73862;BME280;63459;51.456;-0.916;2022-12-18T00:29:13;101619.72;;;12.29;23.10
73862;BME280;63459;51.456;-0.916;2022-12-18T00:31:38;101618.37;;;12.31;23.06
73862;BME280;63459;51.456;-0.916;2022-12-18T00:34:04;101608.34;;;12.59;23.01
73862;BME280;63459;51.456;-0.916;2022-12-18T00:36:31;101605.94;;;12.29;23.04
73862;BME280;63459;51.456;-0.916;2022-12-18T00:38:57;101605.18;;;12.05;23.06
73862;BME280;63459;51.456;-0.916;2022-12-18T00:41:21;101610.61;;;12.47;23.03
73862;BME280;63459;51.456;-0.916;2022-12-18T00:43:46;101613.03;;;11.97;23.07
73862;BME280;63459;51.456;-0.916;2022-12-18T00:46:12;101606.47;;;12.31;23.15
73862;BME280;63459;51.456;-0.916;2022-12-18T00:48:37;101603.73;;;12.06;23.21
73862;BME280;63459;51.456;-0.916;2022-12-18T00:51:03;101600.57;;;12.03;23.24
73862;BME280;63459;51.456;-0.916;2022-12-18T00:53:29;101599.90;;;12.21;23.24
73862;BME280;63459;51.456;-0.916;2022-12-18T00:55:54;101598.07;;;12.18;23.26
73862;BME280;63459;51.456;-0.916;2022-12-18T00:58:19;101595.02;;;11.69;23.31
73862;BME280;63459;51.456;-0.916;2022-12-18T01:00:44;101588.18;;;12.11;23.32
73862;BME280;63459;51.456;-0.916;2022-12-18T01:03:13;101577.75;;;11.87;23.36
73862;BME280;63459;51.456;-0.916;2022-12-18T01:05:39;101578.26;;;12.52;23.38
73862;BME280;63459;51.456;-0.916;2022-12-18T01:08:00;101581.76;;;12.11;23.39
73862;BME280;63459;51.456;-0.916;2022-12-18T01:10:26;101581.21;;;11.91;23.39
73862;BME280;63459;51.456;-0.916;2022-12-18T01:12:51;101585.72;;;11.90;23.39
73862;BME280;63459;51.456;-0.916;2022-12-18T01:15:17;101584.38;;;12.10;23.41
73862;BME280;63459;51.456;-0.916;2022-12-18T01:20:09;101577.33;;;11.94;23.42
73862;BME280;63459;51.456;-0.916;2022-12-18T01:22:32;101567.82;;;12.01;23.37
73862;BME280;63459;51.456;-0.916;2022-12-18T01:24:58;101571.61;;;12.09;23.34
73862;BME280;63459;51.456;-0.916;2022-12-18T01:27:23;101570.61;;;12.16;23.31
73862;BME280;63459;51.456;-0.916;2022-12-18T01:29:49;101566.74;;;12.62;23.30
73862;BME280;63459;51.456;-0.916;2022-12-18T01:32:15;101566.73;;;12.21;23.30
73862;BME280;63459;51.456;-0.916;2022-12-18T01:34:40;101565.97;;;12.68;23.27
73862;BME280;63459;51.456;-0.916;2022-12-18T01:39:32;101572.46;;;12.37;23.15
73862;BME280;63459;51.456;-0.916;2022-12-18T01:49:13;101563.37;;;12.37;23.33
73862;BME280;63459;51.456;-0.916;2022-12-18T01:51:38;101558.81;;;12.08;23.41
73862;BME280;63459;51.456;-0.916;2022-12-18T01:54:03;101563.14;;;11.70;23.38
73862;BME280;63459;51.456;-0.916;2022-12-18T01:56:29;101563.63;;;12.12;23.41
73862;BME280;63459;51.456;-0.916;2022-12-18T01:59:00;101571.72;;;11.96;23.35
73862;BME280;63459;51.456;-0.916;2022-12-18T02:01:20;101572.48;;;12.62;23.41
73862;BME280;63459;51.456;-0.916;2022-12-18T02:03:45;101573.06;;;12.71;23.35
73862;BME280;63459;51.456;-0.916;2022-12-18T02:06:15;101580.05;;;12.28;23.36
73862;BME280;63459;51.456;-0.916;2022-12-18T02:08:43;101582.80;;;12.75;23.31
73862;BME280;63459;51.456;-0.916;2022-12-18T02:11:06;101582.57;;;12.52;23.33
73862;BME280;63459;51.456;-0.916;2022-12-18T02:13:32;101582.28;;;12.53;23.34
73862;BME280;63459;51.456;-0.916;2022-12-18T02:15:59;101582.65;;;12.15;23.31
73862;BME280;63459;51.456;-0.916;2022-12-18T02:20:45;101577.95;;;12.57;23.15
73862;BME280;63459;51.456;-0.916;2022-12-18T02:25:43;101583.42;;;12.36;23.12
73862;BME280;63459;51.456;-0.916;2022-12-18T02:28:00;101590.69;;;12.36;23.12
73862;BME280;63459;51.456;-0.916;2022-12-18T02:30:24;101591.24;;;12.83;23.07
73862;BME280;63459;51.456;-0.916;2022-12-18T02:32:52;101602.05;;;12.59;23.10
73862;BME280;63459;51.456;-0.916;2022-12-18T02:35:19;101600.65;;;12.58;23.11
73862;BME280;63459;51.456;-0.916;2022-12-18T02:37:41;101595.40;;;12.36;23.07
73862;BME280;63459;51.456;-0.916;2022-12-18T02:40:08;101590.34;;;12.53;23.06
73862;BME280;63459;51.456;-0.916;2022-12-18T02:42:32;101586.49;;;12.90;23.00
73862;BME280;63459;51.456;-0.916;2022-12-18T02:44:56;101586.10;;;12.83;23.00
73862;BME280;63459;51.456;-0.916;2022-12-18T02:47:24;101576.92;;;12.06;23.07
73862;BME280;63459;51.456;-0.916;2022-12-18T02:49:55;101584.96;;;12.00;23.15
73862;BME280;63459;51.456;-0.916;2022-12-18T02:52:19;101573.89;;;12.37;23.23
73862;BME280;63459;51.456;-0.916;2022-12-18T02:54:51;101569.61;;;12.12;23.28
73862;BME280;63459;51.456;-0.916;2022-12-18T02:57:11;101567.94;;;12.31;23.34
73862;BME280;63459;51.456;-0.916;2022-12-18T02:59:33;101569.19;;;12.03;23.38
73862;BME280;63459;51.456;-0.916;2022-12-18T03:01:57;101553.93;;;11.83;23.38
73862;BME280;63459;51.456;-0.916;2022-12-18T03:06:48;101546.11;;;12.02;23.48
73862;BME280;63459;51.456;-0.916;2022-12-18T03:09:15;101540.24;;;12.46;23.49
73862;BME280;63459;51.456;-0.916;2022-12-18T03:11:39;101536.78;;;12.23;23.53
73862;BME280;63459;51.456;-0.916;2022-12-18T03:14:03;101536.30;;;12.00;23.56
73862;BME280;63459;51.456;-0.916;2022-12-18T03:16:29;101539.56;;;12.08;23.54
73862;BME280;63459;51.456;-0.916;2022-12-18T03:18:56;101538.90;;;11.93;23.49
73862;BME280;63459;51.456;-0.916;2022-12-18T03:21:22;101546.97;;;12.31;23.60
73862;BME280;63459;51.456;-0.916;2022-12-18T03:23:48;101546.56;;;12.34;23.61
73862;BME280;63459;51.456;-0.916;2022-12-18T03:35:52;101528.36;;;12.29;23.60
73862;BME280;63459;51.456;-0.916;2022-12-18T03:38:18;101520.69;;;12.38;23.53
73862;BME280;63459;51.456;-0.916;2022-12-18T03:40:51;101520.32;;;11.97;23.51
73862;BME280;63459;51.456;-0.916;2022-12-18T03:43:10;101527.03;;;12.64;23.52
73862;BME280;63459;51.456;-0.916;2022-12-18T03:45:36;101528.89;;;12.69;23.52
73862;BME280;63459;51.456;-0.916;2022-12-18T03:48:03;101517.14;;;12.75;23.52
73862;BME280;63459;51.456;-0.916;2022-12-18T03:50:32;101509.66;;;12.61;23.47
73862;BME280;63459;51.456;-0.916;2022-12-18T03:52:53;101510.95;;;13.10;23.41
73862;BME280;63459;51.456;-0.916;2022-12-18T03:57:42;101511.71;;;12.77;23.39
73862;BME280;63459;51.456;-0.916;2022-12-18T04:00:10;101509.90;;;12.52;23.43
73862;BME280;63459;51.456;-0.916;2022-12-18T04:02:34;101502.52;;;12.45;23.34
73862;BME280;63459;51.456;-0.916;2022-12-18T04:04:59;101496.78;;;12.50;23.32
73862;BME280;63459;51.456;-0.916;2022-12-18T04:07:23;101491.42;;;12.76;23.28
73862;BME280;63459;51.456;-0.916;2022-12-18T04:09:49;101492.99;;;12.54;23.27
73862;BME280;63459;51.456;-0.916;2022-12-18T04:12:14;101499.74;;;12.51;23.29
73862;BME280;63459;51.456;-0.916;2022-12-18T04:14:39;101498.60;;;12.50;23.30
73862;BME280;63459;51.456;-0.916;2022-12-18T04:17:05;101498.38;;;12.44;23.37
73862;BME280;63459;51.456;-0.916;2022-12-18T04:19:31;101498.30;;;13.05;23.45
73862;BME280;63459;51.456;-0.916;2022-12-18T04:21:56;101497.23;;;12.61;23.49
73862;BME280;63459;51.456;-0.916;2022-12-18T04:29:12;101483.88;;;12.94;23.49
73862;BME280;63459;51.456;-0.916;2022-12-18T04:31:37;101480.21;;;12.71;23.52
73862;BME280;63459;51.456;-0.916;2022-12-18T04:34:03;101476.89;;;12.73;23.51
73862;BME280;63459;51.456;-0.916;2022-12-18T04:36:28;101468.91;;;12.76;23.53
73862;BME280;63459;51.456;-0.916;2022-12-18T04:38:53;101459.86;;;12.35;23.56
73862;BME280;63459;51.456;-0.916;2022-12-18T04:41:19;101445.43;;;12.33;23.61
73862;BME280;63459;51.456;-0.916;2022-12-18T04:43:45;101439.29;;;13.07;23.57
73862;BME280;63459;51.456;-0.916;2022-12-18T04:46:10;101433.09;;;12.64;23.59
73862;BME280;63459;51.456;-0.916;2022-12-18T04:48:36;101431.17;;;12.67;23.57
73862;BME280;63459;51.456;-0.916;2022-12-18T04:51:01;101429.73;;;12.87;23.55
73862;BME280;63459;51.456;-0.916;2022-12-18T04:53:26;101427.01;;;13.09;23.54
73862;BME280;63459;51.456;-0.916;2022-12-18T04:58:17;101426.61;;;12.66;23.55
73862;BME280;63459;51.456;-0.916;2022-12-18T05:00:42;101418.86;;;13.06;23.60
73862;BME280;63459;51.456;-0.916;2022-12-18T05:03:07;101406.75;;;13.03;23.59
73862;BME280;63459;51.456;-0.916;2022-12-18T05:05:34;101400.12;;;13.25;23.62
73862;BME280;63459;51.456;-0.916;2022-12-18T05:07:58;101394.54;;;13.05;23.60
73862;BME280;63459;51.456;-0.916;2022-12-18T05:10:23;101395.93;;;12.40;23.60
73862;BME280;63459;51.456;-0.916;2022-12-18T05:12:48;101389.15;;;13.08;23.57
73862;BME280;63459;51.456;-0.916;2022-12-18T05:15:14;101386.34;;;13.05;23.59
73862;BME280;63459;51.456;-0.916;2022-12-18T05:17:39;101389.46;;;13.02;23.62
73862;BME280;63459;51.456;-0.916;2022-12-18T05:20:05;101383.15;;;13.25;23.64
73862;BME280;63459;51.456;-0.916;2022-12-18T05:22:30;101377.26;;;13.09;23.61
73862;BME280;63459;51.456;-0.916;2022-12-18T05:24:55;101372.50;;;13.39;23.58
73862;BME280;63459;51.456;-0.916;2022-12-18T05:27:21;101373.60;;;13.00;23.59
73862;BME280;63459;51.456;-0.916;2022-12-18T05:29:46;101372.01;;;13.06;23.59
73862;BME280;63459;51.456;-0.916;2022-12-18T05:32:11;101373.82;;;12.91;23.58
73862;BME280;63459;51.456;-0.916;2022-12-18T05:34:37;101375.22;;;12.81;23.53
73862;BME280;63459;51.456;-0.916;2022-12-18T05:37:02;101376.39;;;13.35;23.44
73862;BME280;63459;51.456;-0.916;2022-12-18T05:39:28;101361.62;;;13.26;23.38
73862;BME280;63459;51.456;-0.916;2022-12-18T05:41:53;101359.70;;;13.08;23.38
73862;BME280;63459;51.456;-0.916;2022-12-18T05:44:19;101355.93;;;13.13;23.38
73862;BME280;63459;51.456;-0.916;2022-12-18T05:46:44;101351.20;;;13.21;23.34
73862;BME280;63459;51.456;-0.916;2022-12-18T05:49:10;101351.67;;;13.26;23.31
73862;BME280;63459;51.456;-0.916;2022-12-18T05:51:35;101344.59;;;13.29;23.32
73862;BME280;63459;51.456;-0.916;2022-12-18T05:54:00;101341.67;;;13.80;23.31
73862;BME280;63459;51.456;-0.916;2022-12-18T05:56:26;101332.04;;;13.64;23.31
73862;BME280;63459;51.456;-0.916;2022-12-18T05:58:52;101320.91;;;13.65;23.34
73862;BME280;63459;51.456;-0.916;2022-12-18T06:01:18;101319.17;;;13.95;23.35
73862;BME280;63459;51.456;-0.916;2022-12-18T06:03:42;101318.90;;;13.56;23.37
73862;BME280;63459;51.456;-0.916;2022-12-18T06:06:13;101316.20;;;13.88;23.34
73862;BME280;63459;51.456;-0.916;2022-12-18T06:08:33;101316.26;;;13.73;23.33
73862;BME280;63459;51.456;-0.916;2022-12-18T06:10:59;101312.99;;;13.54;23.37
73862;BME280;63459;51.456;-0.916;2022-12-18T06:13:24;101306.33;;;13.81;23.38
73862;BME280;63459;51.456;-0.916;2022-12-18T06:15:50;101300.40;;;13.69;23.33
73862;BME280;63459;51.456;-0.916;2022-12-18T06:18:15;101292.08;;;13.88;23.39
73862;BME280;63459;51.456;-0.916;2022-12-18T06:23:06;101280.35;;;13.52;23.43
73862;BME280;63459;51.456;-0.916;2022-12-18T06:25:32;101276.88;;;11.99;23.35
73862;BME280;63459;51.456;-0.916;2022-12-18T06:27:57;101280.56;;;14.66;22.66
73862;BME280;63459;51.456;-0.916;2022-12-18T06:30:23;101284.32;;;14.35;22.95
73862;BME280;63459;51.456;-0.916;2022-12-18T06:32:49;101283.74;;;14.38;23.15
73862;BME280;63459;51.456;-0.916;2022-12-18T06:37:39;101286.43;;;13.93;23.15
73862;BME280;63459;51.456;-0.916;2022-12-18T06:40:06;101287.61;;;14.49;23.23
73862;BME280;63459;51.456;-0.916;2022-12-18T06:42:30;101290.00;;;14.07;23.24
73862;BME280;63459;51.456;-0.916;2022-12-18T06:44:57;101288.79;;;14.04;23.29
73862;BME280;63459;51.456;-0.916;2022-12-18T06:47:21;101281.74;;;14.01;23.31
73862;BME280;63459;51.456;-0.916;2022-12-18T06:49:47;101279.40;;;14.39;23.35
73862;BME280;63459;51.456;-0.916;2022-12-18T06:52:12;101274.91;;;14.00;23.37
73862;BME280;63459;51.456;-0.916;2022-12-18T06:54:37;101270.26;;;14.61;23.39
73862;BME280;63459;51.456;-0.916;2022-12-18T06:57:03;101270.39;;;14.20;23.37
73862;BME280;63459;51.456;-0.916;2022-12-18T06:59:28;101267.18;;;14.24;23.34
73862;BME280;63459;51.456;-0.916;2022-12-18T07:01:54;101274.24;;;14.68;23.35
73862;BME280;63459;51.456;-0.916;2022-12-18T07:04:19;101273.09;;;14.27;23.34
73862;BME280;63459;51.456;-0.916;2022-12-18T07:06:44;101262.86;;;14.27;23.32
73862;BME280;63459;51.456;-0.916;2022-12-18T07:09:10;101259.65;;;13.81;23.36
73862;BME280;63459;51.456;-0.916;2022-12-18T07:11:36;101253.12;;;14.20;23.40
73862;BME280;63459;51.456;-0.916;2022-12-18T07:14:01;101249.11;;;14.40;23.43
73862;BME280;63459;51.456;-0.916;2022-12-18T07:16:27;101249.14;;;13.96;23.45
73862;BME280;63459;51.456;-0.916;2022-12-18T07:18:54;101240.89;;;13.96;23.48
73862;BME280;63459;51.456;-0.916;2022-12-18T07:21:19;101238.64;;;14.18;23.51
73862;BME280;63459;51.456;-0.916;2022-12-18T07:23:43;101233.01;;;14.63;23.50
73862;BME280;63459;51.456;-0.916;2022-12-18T07:26:09;101228.39;;;13.93;23.57
73862;BME280;63459;51.456;-0.916;2022-12-18T07:28:34;101231.86;;;14.25;23.51
73862;BME280;63459;51.456;-0.916;2022-12-18T07:31:02;101226.71;;;13.62;23.51
73862;BME280;63459;51.456;-0.916;2022-12-18T07:33:25;101227.83;;;14.29;23.52
73862;BME280;63459;51.456;-0.916;2022-12-18T07:35:50;101224.83;;;14.14;23.50
73862;BME280;63459;51.456;-0.916;2022-12-18T07:38:16;101224.17;;;14.20;23.43
73862;BME280;63459;51.456;-0.916;2022-12-18T07:43:07;101221.06;;;14.07;23.41
73862;BME280;63459;51.456;-0.916;2022-12-18T07:45:32;101219.48;;;14.50;23.43
73862;BME280;63459;51.456;-0.916;2022-12-18T07:47:58;101216.12;;;14.51;23.45
73862;BME280;63459;51.456;-0.916;2022-12-18T07:50:23;101203.97;;;14.32;23.45
73862;BME280;63459;51.456;-0.916;2022-12-18T07:55:14;101201.08;;;14.21;23.41
73862;BME280;63459;51.456;-0.916;2022-12-18T08:00:06;101215.35;;;14.66;23.41
73862;BME280;63459;51.456;-0.916;2022-12-18T08:04:56;101210.53;;;14.33;23.37
73862;BME280;63459;51.456;-0.916;2022-12-18T08:07:22;101206.09;;;14.55;23.39
73862;BME280;63459;51.456;-0.916;2022-12-18T08:09:47;101198.99;;;14.18;23.33
73862;BME280;63459;51.456;-0.916;2022-12-18T08:17:04;101202.52;;;14.86;23.35
73862;BME280;63459;51.456;-0.916;2022-12-18T08:19:29;101213.35;;;14.68;23.35
73862;BME280;63459;51.456;-0.916;2022-12-18T08:21:55;101226.62;;;15.12;23.38
73862;BME280;63459;51.456;-0.916;2022-12-18T08:24:20;101241.82;;;14.70;23.42
73862;BME280;63459;51.456;-0.916;2022-12-18T08:26:45;101245.34;;;14.95;23.42
73862;BME280;63459;51.456;-0.916;2022-12-18T08:31:37;101250.56;;;14.63;23.38
73862;BME280;63459;51.456;-0.916;2022-12-18T08:34:02;101248.07;;;15.09;23.40
73862;BME280;63459;51.456;-0.916;2022-12-18T08:36:27;101241.05;;;15.13;23.40
73862;BME280;63459;51.456;-0.916;2022-12-18T08:38:53;101240.37;;;14.75;23.38
73862;BME280;63459;51.456;-0.916;2022-12-18T08:41:19;101237.41;;;15.28;23.31
73862;BME280;63459;51.456;-0.916;2022-12-18T08:43:44;101233.43;;;14.93;23.25
73862;BME280;63459;51.456;-0.916;2022-12-18T08:46:09;101233.83;;;15.41;23.22
73862;BME280;63459;51.456;-0.916;2022-12-18T08:50:59;101209.97;;;15.06;23.16
73862;BME280;63459;51.456;-0.916;2022-12-18T08:53:25;101205.86;;;15.29;23.12
73862;BME280;63459;51.456;-0.916;2022-12-18T08:55:50;101208.74;;;14.88;23.11
73862;BME280;63459;51.456;-0.916;2022-12-18T08:58:16;101217.82;;;14.62;23.15
73862;BME280;63459;51.456;-0.916;2022-12-18T09:00:42;101224.41;;;15.06;23.17
73862;BME280;63459;51.456;-0.916;2022-12-18T09:03:11;101232.55;;;15.27;23.18
73862;BME280;63459;51.456;-0.916;2022-12-18T09:05:33;101240.21;;;14.67;23.17
73862;BME280;63459;51.456;-0.916;2022-12-18T09:07:59;101249.72;;;15.11;23.18
73862;BME280;63459;51.456;-0.916;2022-12-18T09:10:24;101251.16;;;14.95;23.15
73862;BME280;63459;51.456;-0.916;2022-12-18T09:12:49;101252.08;;;15.61;23.14
73862;BME280;63459;51.456;-0.916;2022-12-18T09:15:15;101254.51;;;15.40;23.20
73862;BME280;63459;51.456;-0.916;2022-12-18T09:17:40;101255.56;;;15.43;23.20
73862;BME280;63459;51.456;-0.916;2022-12-18T09:20:06;101248.01;;;15.22;23.19
73862;BME280;63459;51.456;-0.916;2022-12-18T09:22:31;101243.68;;;15.26;23.18
73862;BME280;63459;51.456;-0.916;2022-12-18T09:24:56;101237.67;;;15.28;23.18
73862;BME280;63459;51.456;-0.916;2022-12-18T09:27:22;101229.79;;;15.32;23.14
73862;BME280;63459;51.456;-0.916;2022-12-18T09:29:47;101224.18;;;15.38;23.09
73862;BME280;63459;51.456;-0.916;2022-12-18T09:32:12;101222.65;;;15.20;23.03
73862;BME280;63459;51.456;-0.916;2022-12-18T09:37:03;101222.34;;;15.37;23.08
73862;BME280;63459;51.456;-0.916;2022-12-18T09:39:28;101225.73;;;15.41;23.07
73862;BME280;63459;51.456;-0.916;2022-12-18T09:41:57;101224.08;;;15.28;23.03
73862;BME280;63459;51.456;-0.916;2022-12-18T09:44:24;101231.55;;;15.55;22.99
73862;BME280;63459;51.456;-0.916;2022-12-18T09:46:50;101228.74;;;15.36;23.01
73862;BME280;63459;51.456;-0.916;2022-12-18T09:49:14;101215.26;;;15.40;23.01
73862;BME280;63459;51.456;-0.916;2022-12-18T09:51:39;101216.54;;;15.24;23.00
73862;BME280;63459;51.456;-0.916;2022-12-18T09:54:05;101206.68;;;15.70;22.98
73862;BME280;63459;51.456;-0.916;2022-12-18T09:56:29;101213.42;;;15.69;22.95
73862;BME280;63459;51.456;-0.916;2022-12-18T09:58:57;101210.47;;;15.48;22.95
73862;BME280;63459;51.456;-0.916;2022-12-18T10:01:21;101202.40;;;15.70;22.96
73862;BME280;63459;51.456;-0.916;2022-12-18T10:03:44;101204.37;;;15.32;22.95
73862;BME280;63459;51.456;-0.916;2022-12-18T10:06:13;101207.69;;;15.58;22.85
73862;BME280;63459;51.456;-0.916;2022-12-18T10:08:40;101208.35;;;15.79;22.89
73862;BME280;63459;51.456;-0.916;2022-12-18T10:11:11;101206.35;;;15.55;22.92
73862;BME280;63459;51.456;-0.916;2022-12-18T10:13:31;101205.35;;;15.31;22.94
73862;BME280;63459;51.456;-0.916;2022-12-18T10:16:00;101195.17;;;15.55;22.96
73862;BME280;63459;51.456;-0.916;2022-12-18T10:18:25;101185.27;;;15.52;23.01
73862;BME280;63459;51.456;-0.916;2022-12-18T10:20:45;101175.80;;;15.53;23.02
73862;BME280;63459;51.456;-0.916;2022-12-18T10:23:13;101163.10;;;15.98;23.01
73862;BME280;63459;51.456;-0.916;2022-12-18T10:25:38;101159.78;;;15.32;23.03
73862;BME280;63459;51.456;-0.916;2022-12-18T10:28:07;101144.53;;;15.05;23.09
73862;BME280;63459;51.456;-0.916;2022-12-18T10:30:25;101145.21;;;15.69;23.13
73862;BME280;63459;51.456;-0.916;2022-12-18T10:35:18;101147.83;;;15.40;24.17
73862;BME280;63459;51.456;-0.916;2022-12-18T10:40:09;101142.52;;;15.37;24.41
73862;BME280;63459;51.456;-0.916;2022-12-18T10:42:31;101133.33;;;15.13;24.52
73862;BME280;63459;51.456;-0.916;2022-12-18T10:45:01;101133.53;;;15.14;24.50
73862;BME280;63459;51.456;-0.916;2022-12-18T10:49:50;101133.72;;;15.38;24.49
73862;BME280;63459;51.456;-0.916;2022-12-18T10:52:16;101134.87;;;15.65;24.48
73862;BME280;63459;51.456;-0.916;2022-12-18T10:54:38;101126.92;;;15.26;24.46
73862;BME280;63459;51.456;-0.916;2022-12-18T10:57:14;101116.29;;;15.31;24.41
73862;BME280;63459;51.456;-0.916;2022-12-18T10:59:35;101102.54;;;15.16;24.38
73862;BME280;63459;51.456;-0.916;2022-12-18T11:01:57;101103.80;;;15.64;24.34
73862;BME280;63459;51.456;-0.916;2022-12-18T11:04:22;101098.60;;;15.48;24.30
73862;BME280;63459;51.456;-0.916;2022-12-18T11:06:53;101083.63;;;15.70;24.30
73862;BME280;63459;51.456;-0.916;2022-12-18T11:11:37;101073.09;;;15.76;24.24
73862;BME280;63459;51.456;-0.916;2022-12-18T11:14:04;101075.96;;;15.74;24.29
73862;BME280;63459;51.456;-0.916;2022-12-18T11:16:29;101073.40;;;15.76;24.31
73862;BME280;63459;51.456;-0.916;2022-12-18T11:18:54;101067.70;;;15.99;24.35
73862;BME280;63459;51.456;-0.916;2022-12-18T11:21:19;101067.81;;;15.63;24.36
73862;BME280;63459;51.456;-0.916;2022-12-18T11:23:47;101070.70;;;15.92;24.30
73862;BME280;63459;51.456;-0.916;2022-12-18T11:26:10;101066.69;;;15.74;24.28
73862;BME280;63459;51.456;-0.916;2022-12-18T11:28:37;101073.10;;;15.97;24.30
73862;BME280;63459;51.456;-0.916;2022-12-18T11:31:11;101064.45;;;15.99;24.30
73862;BME280;63459;51.456;-0.916;2022-12-18T11:33:26;101064.95;;;16.22;24.31
73862;BME280;63459;51.456;-0.916;2022-12-18T11:35:53;101048.32;;;16.06;24.28
73862;BME280;63459;51.456;-0.916;2022-12-18T11:38:21;101035.50;;;16.29;24.27
73862;BME280;63459;51.456;-0.916;2022-12-18T11:40:47;101032.83;;;15.90;24.28
73862;BME280;63459;51.456;-0.916;2022-12-18T11:43:11;101026.75;;;15.71;24.28
73862;BME280;63459;51.456;-0.916;2022-12-18T11:45:35;101020.89;;;16.38;24.29
73862;BME280;63459;51.456;-0.916;2022-12-18T11:48:03;101011.19;;;15.97;24.29
73862;BME280;63459;51.456;-0.916;2022-12-18T11:50:29;100998.86;;;15.96;24.33
73862;BME280;63459;51.456;-0.916;2022-12-18T11:52:51;100993.15;;;16.04;24.30
73862;BME280;63459;51.456;-0.916;2022-12-18T11:55:24;100992.13;;;16.02;24.40
73862;BME280;63459;51.456;-0.916;2022-12-18T11:57:48;100981.19;;;15.84;24.47
73862;BME280;63459;51.456;-0.916;2022-12-18T12:00:12;100979.99;;;15.91;24.46
73862;BME280;63459;51.456;-0.916;2022-12-18T12:02:43;100974.91;;;15.75;24.46
73862;BME280;63459;51.456;-0.916;2022-12-18T12:07:33;100972.01;;;16.24;24.48
73862;BME280;63459;51.456;-0.916;2022-12-18T12:09:56;100967.57;;;16.24;24.53
73862;BME280;63459;51.456;-0.916;2022-12-18T12:12:25;100960.42;;;16.28;24.55
73862;BME280;63459;51.456;-0.916;2022-12-18T12:14:47;100943.48;;;15.83;24.59
73862;BME280;63459;51.456;-0.916;2022-12-18T12:17:11;100940.76;;;15.87;24.64
73862;BME280;63459;51.456;-0.916;2022-12-18T12:19:38;100937.90;;;16.11;24.66
73862;BME280;63459;51.456;-0.916;2022-12-18T12:22:03;100930.52;;;15.98;24.66
73862;BME280;63459;51.456;-0.916;2022-12-18T12:24:33;100932.20;;;15.80;24.68
73862;BME280;63459;51.456;-0.916;2022-12-18T12:26:52;100921.59;;;16.93;24.69
73862;BME280;63459;51.456;-0.916;2022-12-18T12:29:24;100919.92;;;16.51;24.78
73862;BME280;63459;51.456;-0.916;2022-12-18T12:34:10;100908.01;;;15.99;24.89
73862;BME280;63459;51.456;-0.916;2022-12-18T12:36:33;100894.69;;;16.02;24.91
73862;BME280;63459;51.456;-0.916;2022-12-18T12:38:56;100890.87;;;16.33;24.89
73862;BME280;63459;51.456;-0.916;2022-12-18T12:41:22;100885.99;;;16.60;24.93
73862;BME280;63459;51.456;-0.916;2022-12-18T12:43:47;100886.43;;;16.42;24.92
73862;BME280;63459;51.456;-0.916;2022-12-18T12:46:12;100878.76;;;16.65;25.02
73862;BME280;63459;51.456;-0.916;2022-12-18T12:48:42;100877.18;;;16.23;25.05
73862;BME280;63459;51.456;-0.916;2022-12-18T12:51:04;100867.31;;;16.53;25.10
73862;BME280;63459;51.456;-0.916;2022-12-18T12:53:30;100857.68;;;16.73;25.14
73862;BME280;63459;51.456;-0.916;2022-12-18T12:55:52;100856.23;;;16.79;25.14
73862;BME280;63459;51.456;-0.916;2022-12-18T12:58:21;100854.87;;;16.63;25.20
73862;BME280;63459;51.456;-0.916;2022-12-18T13:00:52;100834.12;;;16.65;25.22
73862;BME280;63459;51.456;-0.916;2022-12-18T13:03:12;100830.71;;;16.49;25.25
73862;BME280;63459;51.456;-0.916;2022-12-18T13:05:39;100828.87;;;16.96;25.25
73862;BME280;63459;51.456;-0.916;2022-12-18T13:10:30;100818.86;;;16.41;25.21
73862;BME280;63459;51.456;-0.916;2022-12-18T13:12:55;100810.66;;;16.67;25.19
73862;BME280;63459;51.456;-0.916;2022-12-18T13:15:21;100811.36;;;16.91;25.22
73862;BME280;63459;51.456;-0.916;2022-12-18T13:20:08;100800.62;;;17.10;25.43
73862;BME280;63459;51.456;-0.916;2022-12-18T13:22:35;100797.88;;;16.90;25.44
73862;BME280;63459;51.456;-0.916;2022-12-18T13:24:57;100791.79;;;16.93;25.46
73862;BME280;63459;51.456;-0.916;2022-12-18T13:29:48;100785.55;;;16.83;25.45
73862;BME280;63459;51.456;-0.916;2022-12-18T13:32:20;100777.82;;;17.08;25.43
73862;BME280;63459;51.456;-0.916;2022-12-18T13:34:44;100773.10;;;17.26;25.52
73862;BME280;63459;51.456;-0.916;2022-12-18T13:39:33;100769.83;;;17.11;25.51
73862;BME280;63459;51.456;-0.916;2022-12-18T13:44:28;100765.47;;;16.93;25.57
73862;BME280;63459;51.456;-0.916;2022-12-18T13:49:23;100765.63;;;16.97;25.67
73862;BME280;63459;51.456;-0.916;2022-12-18T13:51:41;100762.20;;;17.23;25.68
73862;BME280;63459;51.456;-0.916;2022-12-18T13:54:13;100758.07;;;17.11;25.57
73862;BME280;63459;51.456;-0.916;2022-12-18T13:56:31;100758.96;;;17.41;25.55
73862;BME280;63459;51.456;-0.916;2022-12-18T14:01:23;100755.48;;;17.18;25.64
73862;BME280;63459;51.456;-0.916;2022-12-18T14:03:45;100741.13;;;17.43;25.62
73862;BME280;63459;51.456;-0.916;2022-12-18T14:06:11;100733.05;;;16.77;25.70
73862;BME280;63459;51.456;-0.916;2022-12-18T14:08:38;100729.81;;;17.29;25.67
73862;BME280;63459;51.456;-0.916;2022-12-18T14:11:03;100731.51;;;17.30;25.66